sensor_id;sensor_type;location;lat;lon;timestamp;temperature;humidity
5899;DHT22;2975;50.956;6.962;2023-04-29T00:00:22;13.30;99.90
5899;DHT22;2975;50.956;6.962;2023-04-29T00:02:47;13.20;99.90
5899;DHT22;2975;50.956;6.962;2023-04-29T00:05:13;13.20;99.90
5899;DHT22;2975;50.956;6.962;2023-04-29T00:07:38;13.10;99.90
5899;DHT22;2975;50.956;6.962;2023-04-29T00:10:04;13.10;99.90
5899;DHT22;2975;50.956;6.962;2023-04-29T00:12:30;13.10;99.90
5899;DHT22;2975;50.956;6.962;2023-04-29T00:14:57;13.10;99.90
5899;DHT22;2975;50.956;6.962;2023-04-29T00:17:23;13.10;99.90
5899;DHT22;2975;50.956;6.962;2023-04-29T00:19:49;13.00;99.90
5899;DHT22;2975;50.956;6.962;2023-04-29T00:22:15;13.00;99.90
5899;DHT22;2975;50.956;6.962;2023-04-29T00:24:40;13.00;99.90
5899;DHT22;2975;50.956;6.962;2023-04-29T00:27:06;13.00;99.90
5899;DHT22;2975;50.956;6.962;2023-04-29T00:29:31;12.90;99.90
5899;DHT22;2975;50.956;6.962;2023-04-29T00:31:57;12.90;99.90
5899;DHT22;2975;50.956;6.962;2023-04-29T00:34:23;12.90;99.90
5899;DHT22;2975;50.956;6.962;2023-04-29T00:36:49;12.90;99.90
5899;DHT22;2975;50.956;6.962;2023-04-29T00:39:15;12.90;99.90
5899;DHT22;2975;50.956;6.962;2023-04-29T00:41:40;12.90;99.90
5899;DHT22;2975;50.956;6.962;2023-04-29T00:44:06;12.90;99.90
5899;DHT22;2975;50.956;6.962;2023-04-29T00:46:32;12.90;99.90
5899;DHT22;2975;50.956;6.962;2023-04-29T00:48:59;12.90;99.90
5899;DHT22;2975;50.956;6.962;2023-04-29T00:51:25;12.90;99.90
5899;DHT22;2975;50.956;6.962;2023-04-29T00:53:51;12.90;99.90
5899;DHT22;2975;50.956;6.962;2023-04-29T00:56:17;12.80;99.90
5899;DHT22;2975;50.956;6.962;2023-04-29T00:58:45;12.80;99.90
5899;DHT22;2975;50.956;6.962;2023-04-29T01:01:15;12.80;99.90
5899;DHT22;2975;50.956;6.962;2023-04-29T01:03:41;12.80;99.90
5899;DHT22;2975;50.956;6.962;2023-04-29T01:12:44;12.70;99.90
5899;DHT22;2975;50.956;6.962;2023-04-29T01:17:43;12.70;99.90
5899;DHT22;2975;50.956;6.962;2023-04-29T01:20:12;12.70;99.90
5899;DHT22;2975;50.956;6.962;2023-04-29T01:22:39;12.70;99.90
5899;DHT22;2975;50.956;6.962;2023-04-29T01:25:05;12.70;99.90
5899;DHT22;2975;50.956;6.962;2023-04-29T01:27:45;12.70;99.90
5899;DHT22;2975;50.956;6.962;2023-04-29T01:33:31;12.60;99.90
5899;DHT22;2975;50.956;6.962;2023-04-29T01:36:25;12.60;99.90
5899;DHT22;2975;50.956;6.962;2023-04-29T01:42:07;12.50;99.90
5899;DHT22;2975;50.956;6.962;2023-04-29T01:44:34;12.40;99.90
5899;DHT22;2975;50.956;6.962;2023-04-29T01:47:01;12.40;99.90
5899;DHT22;2975;50.956;6.962;2023-04-29T01:49:27;12.30;99.90
5899;DHT22;2975;50.956;6.962;2023-04-29T01:51:53;12.20;99.90
5899;DHT22;2975;50.956;6.962;2023-04-29T01:54:19;12.20;99.90
5899;DHT22;2975;50.956;6.962;2023-04-29T01:56:46;12.20;99.90
5899;DHT22;2975;50.956;6.962;2023-04-29T01:59:12;12.10;99.90
5899;DHT22;2975;50.956;6.962;2023-04-29T02:01:38;12.10;99.90
5899;DHT22;2975;50.956;6.962;2023-04-29T02:04:03;12.10;99.90
5899;DHT22;2975;50.956;6.962;2023-04-29T02:06:29;12.10;99.90
5899;DHT22;2975;50.956;6.962;2023-04-29T02:08:57;12.00;99.90
5899;DHT22;2975;50.956;6.962;2023-04-29T02:11:22;12.00;99.90
5899;DHT22;2975;50.956;6.962;2023-04-29T02:13:48;12.00;99.90
5899;DHT22;2975;50.956;6.962;2023-04-29T02:16:14;11.90;99.90
5899;DHT22;2975;50.956;6.962;2023-04-29T02:18:41;11.90;99.90
5899;DHT22;2975;50.956;6.962;2023-04-29T02:21:07;11.90;99.90
5899;DHT22;2975;50.956;6.962;2023-04-29T02:23:33;11.90;99.90
5899;DHT22;2975;50.956;6.962;2023-04-29T02:25:59;11.90;99.90
5899;DHT22;2975;50.956;6.962;2023-04-29T02:28:26;11.80;99.90
5899;DHT22;2975;50.956;6.962;2023-04-29T02:30:51;11.80;99.90
5899;DHT22;2975;50.956;6.962;2023-04-29T02:33:17;11.80;99.90
5899;DHT22;2975;50.956;6.962;2023-04-29T02:35:43;11.80;99.90
5899;DHT22;2975;50.956;6.962;2023-04-29T02:38:09;11.80;99.90
5899;DHT22;2975;50.956;6.962;2023-04-29T02:40:43;11.70;99.90
5899;DHT22;2975;50.956;6.962;2023-04-29T02:43:09;11.60;99.90
5899;DHT22;2975;50.956;6.962;2023-04-29T02:45:35;11.50;99.90
5899;DHT22;2975;50.956;6.962;2023-04-29T02:48:01;11.50;99.90
5899;DHT22;2975;50.956;6.962;2023-04-29T02:50:27;11.50;99.90
5899;DHT22;2975;50.956;6.962;2023-04-29T02:52:53;11.40;99.90
5899;DHT22;2975;50.956;6.962;2023-04-29T02:55:18;11.40;99.90
5899;DHT22;2975;50.956;6.962;2023-04-29T02:57:44;11.40;99.90
5899;DHT22;2975;50.956;6.962;2023-04-29T03:00:10;11.40;99.90
5899;DHT22;2975;50.956;6.962;2023-04-29T03:02:36;11.40;99.90
5899;DHT22;2975;50.956;6.962;2023-04-29T03:05:03;11.40;99.90
5899;DHT22;2975;50.956;6.962;2023-04-29T03:07:29;11.40;99.90
5899;DHT22;2975;50.956;6.962;2023-04-29T03:09:55;11.40;99.90
5899;DHT22;2975;50.956;6.962;2023-04-29T03:12:21;11.50;99.90
5899;DHT22;2975;50.956;6.962;2023-04-29T03:14:47;11.50;99.90
5899;DHT22;2975;50.956;6.962;2023-04-29T03:17:13;11.40;99.90
5899;DHT22;2975;50.956;6.962;2023-04-29T03:19:38;11.40;99.90
5899;DHT22;2975;50.956;6.962;2023-04-29T03:22:04;11.40;99.90
5899;DHT22;2975;50.956;6.962;2023-04-29T03:24:30;11.30;99.90
5899;DHT22;2975;50.956;6.962;2023-04-29T03:26:56;11.20;99.90
5899;DHT22;2975;50.956;6.962;2023-04-29T03:29:24;11.20;99.90
5899;DHT22;2975;50.956;6.962;2023-04-29T03:31:50;11.20;99.90
5899;DHT22;2975;50.956;6.962;2023-04-29T03:34:16;11.30;99.90
5899;DHT22;2975;50.956;6.962;2023-04-29T03:36:42;11.20;99.90
5899;DHT22;2975;50.956;6.962;2023-04-29T03:39:07;11.20;99.90
5899;DHT22;2975;50.956;6.962;2023-04-29T03:41:33;11.10;99.90
5899;DHT22;2975;50.956;6.962;2023-04-29T03:43:59;11.10;99.90
5899;DHT22;2975;50.956;6.962;2023-04-29T03:46:28;11.00;99.90
5899;DHT22;2975;50.956;6.962;2023-04-29T03:48:53;10.90;99.90
5899;DHT22;2975;50.956;6.962;2023-04-29T03:51:23;10.80;99.90
5899;DHT22;2975;50.956;6.962;2023-04-29T03:53:49;10.80;99.90
5899;DHT22;2975;50.956;6.962;2023-04-29T03:56:16;10.80;99.90
5899;DHT22;2975;50.956;6.962;2023-04-29T03:58:41;10.80;99.90
5899;DHT22;2975;50.956;6.962;2023-04-29T04:01:07;10.80;99.90
5899;DHT22;2975;50.956;6.962;2023-04-29T04:03:32;10.70;99.90
5899;DHT22;2975;50.956;6.962;2023-04-29T04:05:58;10.60;99.90
5899;DHT22;2975;50.956;6.962;2023-04-29T04:08:24;10.60;99.90
5899;DHT22;2975;50.956;6.962;2023-04-29T04:10:49;10.50;99.90
5899;DHT22;2975;50.956;6.962;2023-04-29T04:13:15;10.40;99.90
5899;DHT22;2975;50.956;6.962;2023-04-29T04:15:40;10.40;99.90
5899;DHT22;2975;50.956;6.962;2023-04-29T04:18:07;10.50;99.90
5899;DHT22;2975;50.956;6.962;2023-04-29T04:20:35;10.50;99.90
5899;DHT22;2975;50.956;6.962;2023-04-29T04:23:01;10.50;99.90
5899;DHT22;2975;50.956;6.962;2023-04-29T04:25:26;10.50;99.90
5899;DHT22;2975;50.956;6.962;2023-04-29T04:27:52;10.40;99.90
5899;DHT22;2975;50.956;6.962;2023-04-29T04:30:18;10.50;99.90
5899;DHT22;2975;50.956;6.962;2023-04-29T04:32:44;10.40;99.90
5899;DHT22;2975;50.956;6.962;2023-04-29T04:35:10;10.50;99.90
5899;DHT22;2975;50.956;6.962;2023-04-29T04:37:36;10.40;99.90
5899;DHT22;2975;50.956;6.962;2023-04-29T04:40:02;10.50;99.90
5899;DHT22;2975;50.956;6.962;2023-04-29T04:42:28;10.50;99.90
5899;DHT22;2975;50.956;6.962;2023-04-29T04:44:53;10.50;99.90
5899;DHT22;2975;50.956;6.962;2023-04-29T04:47:19;10.60;99.90
5899;DHT22;2975;50.956;6.962;2023-04-29T04:49:45;10.60;99.90
5899;DHT22;2975;50.956;6.962;2023-04-29T04:52:11;10.50;99.90
5899;DHT22;2975;50.956;6.962;2023-04-29T04:54:36;10.50;99.90
5899;DHT22;2975;50.956;6.962;2023-04-29T04:57:02;10.40;99.90
5899;DHT22;2975;50.956;6.962;2023-04-29T04:59:30;10.40;99.90
5899;DHT22;2975;50.956;6.962;2023-04-29T05:01:56;10.50;99.90
5899;DHT22;2975;50.956;6.962;2023-04-29T05:04:21;10.40;99.90
5899;DHT22;2975;50.956;6.962;2023-04-29T05:06:47;10.40;99.90
5899;DHT22;2975;50.956;6.962;2023-04-29T05:09:12;10.40;99.90
5899;DHT22;2975;50.956;6.962;2023-04-29T05:11:38;10.40;99.90
5899;DHT22;2975;50.956;6.962;2023-04-29T05:14:04;10.40;99.90
5899;DHT22;2975;50.956;6.962;2023-04-29T05:16:29;10.40;99.90
5899;DHT22;2975;50.956;6.962;2023-04-29T05:18:55;10.40;99.90
5899;DHT22;2975;50.956;6.962;2023-04-29T05:21:20;10.40;99.90
5899;DHT22;2975;50.956;6.962;2023-04-29T05:23:46;10.40;99.90
5899;DHT22;2975;50.956;6.962;2023-04-29T05:26:12;10.40;99.90
5899;DHT22;2975;50.956;6.962;2023-04-29T05:28:37;10.40;99.90
5899;DHT22;2975;50.956;6.962;2023-04-29T05:31:03;10.30;99.90
5899;DHT22;2975;50.956;6.962;2023-04-29T05:33:29;10.40;99.90
5899;DHT22;2975;50.956;6.962;2023-04-29T05:35:54;10.40;99.90
5899;DHT22;2975;50.956;6.962;2023-04-29T05:38:20;10.50;99.90
5899;DHT22;2975;50.956;6.962;2023-04-29T05:40:46;10.50;99.90
5899;DHT22;2975;50.956;6.962;2023-04-29T05:43:14;10.50;99.90
5899;DHT22;2975;50.956;6.962;2023-04-29T05:45:39;10.60;99.90
5899;DHT22;2975;50.956;6.962;2023-04-29T05:48:05;10.60;99.90
5899;DHT22;2975;50.956;6.962;2023-04-29T05:50:33;10.60;99.90
5899;DHT22;2975;50.956;6.962;2023-04-29T05:52:59;10.70;99.90
5899;DHT22;2975;50.956;6.962;2023-04-29T05:55:25;10.60;99.90
5899;DHT22;2975;50.956;6.962;2023-04-29T05:57:50;10.60;99.90
5899;DHT22;2975;50.956;6.962;2023-04-29T06:00:16;10.60;99.90
5899;DHT22;2975;50.956;6.962;2023-04-29T06:02:41;10.50;99.90
5899;DHT22;2975;50.956;6.962;2023-04-29T06:05:07;10.50;99.90
5899;DHT22;2975;50.956;6.962;2023-04-29T06:07:33;10.60;99.90
5899;DHT22;2975;50.956;6.962;2023-04-29T06:09:59;10.60;99.90
5899;DHT22;2975;50.956;6.962;2023-04-29T06:12:24;10.70;99.90
5899;DHT22;2975;50.956;6.962;2023-04-29T06:14:50;10.70;99.90
5899;DHT22;2975;50.956;6.962;2023-04-29T06:17:15;10.70;99.90
5899;DHT22;2975;50.956;6.962;2023-04-29T06:19:41;10.70;99.90
5899;DHT22;2975;50.956;6.962;2023-04-29T06:22:07;10.70;99.90
5899;DHT22;2975;50.956;6.962;2023-04-29T06:24:32;10.70;99.90
5899;DHT22;2975;50.956;6.962;2023-04-29T06:26:58;10.60;99.90
5899;DHT22;2975;50.956;6.962;2023-04-29T06:29:23;10.70;99.90
5899;DHT22;2975;50.956;6.962;2023-04-29T06:31:49;10.70;99.90
5899;DHT22;2975;50.956;6.962;2023-04-29T06:34:15;10.80;99.90
5899;DHT22;2975;50.956;6.962;2023-04-29T06:36:40;10.80;99.90
5899;DHT22;2975;50.956;6.962;2023-04-29T06:39:06;10.90;99.90
5899;DHT22;2975;50.956;6.962;2023-04-29T06:41:31;10.90;99.90
5899;DHT22;2975;50.956;6.962;2023-04-29T06:43:58;10.90;99.90
5899;DHT22;2975;50.956;6.962;2023-04-29T06:46:23;11.00;99.90
5899;DHT22;2975;50.956;6.962;2023-04-29T06:48:49;11.00;99.90
5899;DHT22;2975;50.956;6.962;2023-04-29T06:51:14;11.00;99.90
5899;DHT22;2975;50.956;6.962;2023-04-29T06:53:40;10.90;99.90
5899;DHT22;2975;50.956;6.962;2023-04-29T06:56:06;10.90;99.90
5899;DHT22;2975;50.956;6.962;2023-04-29T06:58:32;11.00;99.90
5899;DHT22;2975;50.956;6.962;2023-04-29T07:00:57;11.10;99.90
5899;DHT22;2975;50.956;6.962;2023-04-29T07:03:23;11.10;99.90
5899;DHT22;2975;50.956;6.962;2023-04-29T07:05:48;11.10;99.90
5899;DHT22;2975;50.956;6.962;2023-04-29T07:08:14;11.30;99.90
5899;DHT22;2975;50.956;6.962;2023-04-29T07:10:40;11.40;99.90
5899;DHT22;2975;50.956;6.962;2023-04-29T07:13:06;11.50;99.90
5899;DHT22;2975;50.956;6.962;2023-04-29T07:15:35;11.50;99.90
5899;DHT22;2975;50.956;6.962;2023-04-29T07:18:05;11.60;99.90
5899;DHT22;2975;50.956;6.962;2023-04-29T07:20:31;11.90;99.90
5899;DHT22;2975;50.956;6.962;2023-04-29T07:22:57;12.00;99.90
5899;DHT22;2975;50.956;6.962;2023-04-29T07:25:22;12.00;99.90
5899;DHT22;2975;50.956;6.962;2023-04-29T07:27:48;12.00;99.90
5899;DHT22;2975;50.956;6.962;2023-04-29T07:30:14;12.10;99.90
5899;DHT22;2975;50.956;6.962;2023-04-29T07:32:39;12.20;99.90
5899;DHT22;2975;50.956;6.962;2023-04-29T07:35:05;12.40;99.90
5899;DHT22;2975;50.956;6.962;2023-04-29T07:37:31;12.30;99.90
5899;DHT22;2975;50.956;6.962;2023-04-29T07:39:56;12.20;99.90
5899;DHT22;2975;50.956;6.962;2023-04-29T07:42:22;12.10;99.90
5899;DHT22;2975;50.956;6.962;2023-04-29T07:44:47;12.10;99.90
5899;DHT22;2975;50.956;6.962;2023-04-29T07:47:13;12.10;99.90
5899;DHT22;2975;50.956;6.962;2023-04-29T07:49:38;11.90;99.90
5899;DHT22;2975;50.956;6.962;2023-04-29T07:52:04;11.80;99.90
5899;DHT22;2975;50.956;6.962;2023-04-29T07:54:30;11.80;99.90
5899;DHT22;2975;50.956;6.962;2023-04-29T07:56:59;11.90;99.90
5899;DHT22;2975;50.956;6.962;2023-04-29T07:59:25;11.90;99.90
5899;DHT22;2975;50.956;6.962;2023-04-29T08:01:51;11.90;99.90
5899;DHT22;2975;50.956;6.962;2023-04-29T08:04:17;12.00;99.90
5899;DHT22;2975;50.956;6.962;2023-04-29T08:06:42;12.30;99.90
5899;DHT22;2975;50.956;6.962;2023-04-29T08:09:08;12.40;99.90
5899;DHT22;2975;50.956;6.962;2023-04-29T08:11:35;12.40;99.90
5899;DHT22;2975;50.956;6.962;2023-04-29T08:14:00;12.40;99.90
5899;DHT22;2975;50.956;6.962;2023-04-29T08:16:26;12.50;99.90
5899;DHT22;2975;50.956;6.962;2023-04-29T08:18:52;12.50;99.90
5899;DHT22;2975;50.956;6.962;2023-04-29T08:21:18;12.40;99.90
5899;DHT22;2975;50.956;6.962;2023-04-29T08:23:44;12.30;99.90
5899;DHT22;2975;50.956;6.962;2023-04-29T08:26:10;12.30;99.90
5899;DHT22;2975;50.956;6.962;2023-04-29T08:28:37;12.20;99.90
5899;DHT22;2975;50.956;6.962;2023-04-29T08:31:03;12.10;99.90
5899;DHT22;2975;50.956;6.962;2023-04-29T08:33:33;12.20;99.90
5899;DHT22;2975;50.956;6.962;2023-04-29T08:35:59;12.30;99.90
5899;DHT22;2975;50.956;6.962;2023-04-29T08:38:26;12.20;99.90
5899;DHT22;2975;50.956;6.962;2023-04-29T08:40:52;12.10;99.90
5899;DHT22;2975;50.956;6.962;2023-04-29T08:43:18;12.40;99.90
5899;DHT22;2975;50.956;6.962;2023-04-29T08:45:46;12.40;99.90
5899;DHT22;2975;50.956;6.962;2023-04-29T08:48:12;12.40;99.90
5899;DHT22;2975;50.956;6.962;2023-04-29T08:50:40;12.70;99.90
5899;DHT22;2975;50.956;6.962;2023-04-29T08:53:10;13.30;99.90
5899;DHT22;2975;50.956;6.962;2023-04-29T08:55:41;13.60;99.90
5899;DHT22;2975;50.956;6.962;2023-04-29T08:58:07;14.00;99.90
5899;DHT22;2975;50.956;6.962;2023-04-29T09:00:34;14.30;99.90
5899;DHT22;2975;50.956;6.962;2023-04-29T09:03:01;14.10;99.90
5899;DHT22;2975;50.956;6.962;2023-04-29T09:05:31;14.10;99.90
5899;DHT22;2975;50.956;6.962;2023-04-29T09:07:59;14.00;99.90
5899;DHT22;2975;50.956;6.962;2023-04-29T09:10:27;13.70;99.90
5899;DHT22;2975;50.956;6.962;2023-04-29T09:12:56;13.50;99.90
5899;DHT22;2975;50.956;6.962;2023-04-29T09:15:25;13.40;99.90
5899;DHT22;2975;50.956;6.962;2023-04-29T09:17:51;13.30;99.90
5899;DHT22;2975;50.956;6.962;2023-04-29T09:22:47;13.00;99.90
5899;DHT22;2975;50.956;6.962;2023-04-29T09:25:13;12.90;99.90
5899;DHT22;2975;50.956;6.962;2023-04-29T09:27:39;12.90;99.90
5899;DHT22;2975;50.956;6.962;2023-04-29T09:30:05;12.70;99.90
5899;DHT22;2975;50.956;6.962;2023-04-29T09:32:30;12.70;99.90
5899;DHT22;2975;50.956;6.962;2023-04-29T09:34:56;12.80;99.90
5899;DHT22;2975;50.956;6.962;2023-04-29T09:37:26;13.00;99.90
5899;DHT22;2975;50.956;6.962;2023-04-29T09:39:52;13.20;99.90
5899;DHT22;2975;50.956;6.962;2023-04-29T09:42:18;13.40;99.90
5899;DHT22;2975;50.956;6.962;2023-04-29T09:44:44;13.30;99.90
5899;DHT22;2975;50.956;6.962;2023-04-29T09:47:10;13.10;99.90
5899;DHT22;2975;50.956;6.962;2023-04-29T09:49:41;13.10;99.90
5899;DHT22;2975;50.956;6.962;2023-04-29T09:52:08;12.90;99.90
5899;DHT22;2975;50.956;6.962;2023-04-29T09:54:35;12.70;99.90
5899;DHT22;2975;50.956;6.962;2023-04-29T09:57:03;12.60;99.90
5899;DHT22;2975;50.956;6.962;2023-04-29T09:59:34;12.50;99.90
5899;DHT22;2975;50.956;6.962;2023-04-29T10:02:01;12.50;99.90
5899;DHT22;2975;50.956;6.962;2023-04-29T10:04:30;12.70;99.90
5899;DHT22;2975;50.956;6.962;2023-04-29T10:06:58;12.60;99.90
5899;DHT22;2975;50.956;6.962;2023-04-29T10:09:24;12.60;99.90
5899;DHT22;2975;50.956;6.962;2023-04-29T10:11:51;12.70;99.90
5899;DHT22;2975;50.956;6.962;2023-04-29T10:14:22;12.80;99.90
5899;DHT22;2975;50.956;6.962;2023-04-29T10:19:25;12.80;99.90
5899;DHT22;2975;50.956;6.962;2023-04-29T10:21:54;12.60;99.90
5899;DHT22;2975;50.956;6.962;2023-04-29T10:24:24;12.60;99.90
5899;DHT22;2975;50.956;6.962;2023-04-29T10:26:50;12.50;99.90
5899;DHT22;2975;50.956;6.962;2023-04-29T10:29:18;12.50;99.90
5899;DHT22;2975;50.956;6.962;2023-04-29T10:31:45;12.50;99.90
5899;DHT22;2975;50.956;6.962;2023-04-29T10:34:13;12.50;99.90
5899;DHT22;2975;50.956;6.962;2023-04-29T10:36:40;12.30;99.90
5899;DHT22;2975;50.956;6.962;2023-04-29T10:39:11;12.30;99.90
5899;DHT22;2975;50.956;6.962;2023-04-29T10:41:44;12.20;99.90
5899;DHT22;2975;50.956;6.962;2023-04-29T10:44:14;12.30;99.90
5899;DHT22;2975;50.956;6.962;2023-04-29T10:46:40;12.30;99.90
5899;DHT22;2975;50.956;6.962;2023-04-29T10:49:06;12.40;99.90
5899;DHT22;2975;50.956;6.962;2023-04-29T10:51:33;12.40;99.90
5899;DHT22;2975;50.956;6.962;2023-04-29T10:59:07;12.40;99.90
5899;DHT22;2975;50.956;6.962;2023-04-29T11:04:12;12.40;99.90
5899;DHT22;2975;50.956;6.962;2023-04-29T11:06:40;12.30;99.90
5899;DHT22;2975;50.956;6.962;2023-04-29T11:09:19;12.30;99.90
5899;DHT22;2975;50.956;6.962;2023-04-29T11:14:25;12.30;99.90
5899;DHT22;2975;50.956;6.962;2023-04-29T11:16:56;12.20;99.90
5899;DHT22;2975;50.956;6.962;2023-04-29T11:19:25;12.30;99.90
5899;DHT22;2975;50.956;6.962;2023-04-29T11:22:07;12.40;99.90
5899;DHT22;2975;50.956;6.962;2023-04-29T11:24:33;12.30;99.90
5899;DHT22;2975;50.956;6.962;2023-04-29T11:27:01;12.30;99.90
5899;DHT22;2975;50.956;6.962;2023-04-29T11:29:30;12.10;99.90
5899;DHT22;2975;50.956;6.962;2023-04-29T11:32:01;12.10;99.90
5899;DHT22;2975;50.956;6.962;2023-04-29T11:34:27;12.00;99.90
5899;DHT22;2975;50.956;6.962;2023-04-29T11:36:53;12.00;99.90
5899;DHT22;2975;50.956;6.962;2023-04-29T11:39:19;12.00;99.90
5899;DHT22;2975;50.956;6.962;2023-04-29T11:41:45;12.10;99.90
5899;DHT22;2975;50.956;6.962;2023-04-29T11:44:11;12.30;99.90
5899;DHT22;2975;50.956;6.962;2023-04-29T11:46:36;12.20;99.90
5899;DHT22;2975;50.956;6.962;2023-04-29T11:49:02;12.10;99.90
5899;DHT22;2975;50.956;6.962;2023-04-29T11:51:28;11.90;99.90
5899;DHT22;2975;50.956;6.962;2023-04-29T11:53:54;12.00;99.90
5899;DHT22;2975;50.956;6.962;2023-04-29T11:56:22;12.10;99.90
5899;DHT22;2975;50.956;6.962;2023-04-29T11:58:54;12.20;99.90
5899;DHT22;2975;50.956;6.962;2023-04-29T12:01:21;12.30;99.90
5899;DHT22;2975;50.956;6.962;2023-04-29T12:03:48;12.50;99.90
5899;DHT22;2975;50.956;6.962;2023-04-29T12:06:15;12.90;99.90
5899;DHT22;2975;50.956;6.962;2023-04-29T12:08:40;13.00;99.90
5899;DHT22;2975;50.956;6.962;2023-04-29T12:11:06;13.30;99.90
5899;DHT22;2975;50.956;6.962;2023-04-29T12:13:33;13.50;99.90
5899;DHT22;2975;50.956;6.962;2023-04-29T12:16:01;13.30;99.90
5899;DHT22;2975;50.956;6.962;2023-04-29T12:18:27;13.10;99.90
5899;DHT22;2975;50.956;6.962;2023-04-29T12:20:55;13.00;99.90
5899;DHT22;2975;50.956;6.962;2023-04-29T12:23:22;13.10;99.90
5899;DHT22;2975;50.956;6.962;2023-04-29T12:25:49;13.20;99.90
5899;DHT22;2975;50.956;6.962;2023-04-29T12:28:16;13.20;99.90
5899;DHT22;2975;50.956;6.962;2023-04-29T12:30:46;13.20;99.90
5899;DHT22;2975;50.956;6.962;2023-04-29T12:33:22;13.30;99.90
5899;DHT22;2975;50.956;6.962;2023-04-29T12:35:49;13.30;99.90
5899;DHT22;2975;50.956;6.962;2023-04-29T12:38:19;13.40;99.90
5899;DHT22;2975;50.956;6.962;2023-04-29T12:40:46;13.60;99.90
5899;DHT22;2975;50.956;6.962;2023-04-29T12:43:12;13.60;99.90
5899;DHT22;2975;50.956;6.962;2023-04-29T12:45:38;13.80;99.90
5899;DHT22;2975;50.956;6.962;2023-04-29T12:48:04;14.00;99.90
5899;DHT22;2975;50.956;6.962;2023-04-29T12:50:31;14.20;99.90
5899;DHT22;2975;50.956;6.962;2023-04-29T12:53:01;14.70;99.90
5899;DHT22;2975;50.956;6.962;2023-04-29T12:55:27;14.90;99.90
5899;DHT22;2975;50.956;6.962;2023-04-29T12:57:52;15.30;99.90
5899;DHT22;2975;50.956;6.962;2023-04-29T13:00:18;15.70;99.90
5899;DHT22;2975;50.956;6.962;2023-04-29T13:02:45;15.80;99.90
5899;DHT22;2975;50.956;6.962;2023-04-29T13:05:11;16.00;99.60
5899;DHT22;2975;50.956;6.962;2023-04-29T13:07:37;16.20;98.60
5899;DHT22;2975;50.956;6.962;2023-04-29T13:10:04;16.10;98.80
5899;DHT22;2975;50.956;6.962;2023-04-29T13:12:31;16.30;99.40
5899;DHT22;2975;50.956;6.962;2023-04-29T13:14:57;16.80;98.70
5899;DHT22;2975;50.956;6.962;2023-04-29T13:17:22;16.80;97.10
5899;DHT22;2975;50.956;6.962;2023-04-29T13:19:48;16.70;97.30
5899;DHT22;2975;50.956;6.962;2023-04-29T13:22:13;17.10;96.10
5899;DHT22;2975;50.956;6.962;2023-04-29T13:24:39;17.70;94.60
5899;DHT22;2975;50.956;6.962;2023-04-29T13:27:04;17.30;95.00
5899;DHT22;2975;50.956;6.962;2023-04-29T13:29:30;17.40;94.00
5899;DHT22;2975;50.956;6.962;2023-04-29T13:31:56;16.70;94.80
5899;DHT22;2975;50.956;6.962;2023-04-29T13:34:21;16.80;95.40
5899;DHT22;2975;50.956;6.962;2023-04-29T13:36:47;16.50;96.40
5899;DHT22;2975;50.956;6.962;2023-04-29T13:39:13;16.60;95.60
5899;DHT22;2975;50.956;6.962;2023-04-29T13:41:38;16.90;96.20
5899;DHT22;2975;50.956;6.962;2023-04-29T13:44:04;17.40;94.90
5899;DHT22;2975;50.956;6.962;2023-04-29T13:46:29;17.50;94.90
5899;DHT22;2975;50.956;6.962;2023-04-29T13:48:57;17.40;94.50
5899;DHT22;2975;50.956;6.962;2023-04-29T13:51:22;17.40;95.10
5899;DHT22;2975;50.956;6.962;2023-04-29T13:53:48;17.40;94.50
5899;DHT22;2975;50.956;6.962;2023-04-29T13:56:14;17.10;94.10
5899;DHT22;2975;50.956;6.962;2023-04-29T13:58:40;17.00;94.50
5899;DHT22;2975;50.956;6.962;2023-04-29T14:01:06;16.90;95.00
5899;DHT22;2975;50.956;6.962;2023-04-29T14:03:32;16.80;95.50
5899;DHT22;2975;50.956;6.962;2023-04-29T14:05:58;16.90;95.30
5899;DHT22;2975;50.956;6.962;2023-04-29T14:08:23;16.90;94.80
5899;DHT22;2975;50.956;6.962;2023-04-29T14:10:49;17.10;94.20
5899;DHT22;2975;50.956;6.962;2023-04-29T14:13:14;16.80;94.20
5899;DHT22;2975;50.956;6.962;2023-04-29T14:15:41;16.80;94.70
5899;DHT22;2975;50.956;6.962;2023-04-29T14:18:07;16.30;95.20
5899;DHT22;2975;50.956;6.962;2023-04-29T14:20:34;16.30;95.40
5899;DHT22;2975;50.956;6.962;2023-04-29T14:23:00;16.10;95.60
5899;DHT22;2975;50.956;6.962;2023-04-29T14:25:26;15.90;96.00
5899;DHT22;2975;50.956;6.962;2023-04-29T14:27:52;15.90;96.00
5899;DHT22;2975;50.956;6.962;2023-04-29T14:30:17;15.90;96.20
5899;DHT22;2975;50.956;6.962;2023-04-29T14:32:43;15.80;96.20
5899;DHT22;2975;50.956;6.962;2023-04-29T14:35:09;15.60;96.50
5899;DHT22;2975;50.956;6.962;2023-04-29T14:37:35;15.50;96.90
5899;DHT22;2975;50.956;6.962;2023-04-29T14:40:00;15.40;97.40
5899;DHT22;2975;50.956;6.962;2023-04-29T14:42:26;15.40;97.50
5899;DHT22;2975;50.956;6.962;2023-04-29T14:44:51;15.50;97.20
5899;DHT22;2975;50.956;6.962;2023-04-29T14:47:18;15.70;96.90
5899;DHT22;2975;50.956;6.962;2023-04-29T14:49:44;15.70;96.20
5899;DHT22;2975;50.956;6.962;2023-04-29T14:52:10;15.70;96.70
5899;DHT22;2975;50.956;6.962;2023-04-29T14:54:35;15.70;97.00
5899;DHT22;2975;50.956;6.962;2023-04-29T14:57:01;15.70;96.90
5899;DHT22;2975;50.956;6.962;2023-04-29T14:59:27;15.80;96.80
5899;DHT22;2975;50.956;6.962;2023-04-29T15:01:55;16.10;96.70
5899;DHT22;2975;50.956;6.962;2023-04-29T15:04:21;16.10;96.50
5899;DHT22;2975;50.956;6.962;2023-04-29T15:06:47;16.10;96.60
5899;DHT22;2975;50.956;6.962;2023-04-29T15:09:13;15.90;96.50
5899;DHT22;2975;50.956;6.962;2023-04-29T15:11:39;16.00;96.50
5899;DHT22;2975;50.956;6.962;2023-04-29T15:14:04;16.10;96.50
5899;DHT22;2975;50.956;6.962;2023-04-29T15:16:30;16.00;96.20
5899;DHT22;2975;50.956;6.962;2023-04-29T15:18:56;16.00;96.50
5899;DHT22;2975;50.956;6.962;2023-04-29T15:21:22;15.80;96.30
5899;DHT22;2975;50.956;6.962;2023-04-29T15:23:47;15.90;95.90
5899;DHT22;2975;50.956;6.962;2023-04-29T15:26:13;16.00;95.70
5899;DHT22;2975;50.956;6.962;2023-04-29T15:28:39;15.90;95.40
5899;DHT22;2975;50.956;6.962;2023-04-29T15:31:04;15.80;96.20
5899;DHT22;2975;50.956;6.962;2023-04-29T15:33:30;15.70;95.90
5899;DHT22;2975;50.956;6.962;2023-04-29T15:35:57;15.70;95.90
5899;DHT22;2975;50.956;6.962;2023-04-29T15:38:22;15.90;96.00
5899;DHT22;2975;50.956;6.962;2023-04-29T15:40:48;16.10;95.10
5899;DHT22;2975;50.956;6.962;2023-04-29T15:43:14;15.90;95.50
5899;DHT22;2975;50.956;6.962;2023-04-29T15:45:39;15.90;95.30
5899;DHT22;2975;50.956;6.962;2023-04-29T15:48:06;15.70;95.60
5899;DHT22;2975;50.956;6.962;2023-04-29T15:50:32;15.70;96.10
5899;DHT22;2975;50.956;6.962;2023-04-29T15:52:57;15.70;96.00
5899;DHT22;2975;50.956;6.962;2023-04-29T15:55:24;15.70;95.90
5899;DHT22;2975;50.956;6.962;2023-04-29T15:57:50;15.70;96.10
5899;DHT22;2975;50.956;6.962;2023-04-29T16:00:16;15.50;96.10
5899;DHT22;2975;50.956;6.962;2023-04-29T16:02:41;15.40;96.40
5899;DHT22;2975;50.956;6.962;2023-04-29T16:05:08;15.40;96.70
5899;DHT22;2975;50.956;6.962;2023-04-29T16:07:33;15.30;96.70
5899;DHT22;2975;50.956;6.962;2023-04-29T16:09:59;15.20;97.00
5899;DHT22;2975;50.956;6.962;2023-04-29T16:12:25;15.20;96.90
5899;DHT22;2975;50.956;6.962;2023-04-29T16:14:50;15.20;97.10
5899;DHT22;2975;50.956;6.962;2023-04-29T16:17:16;15.20;97.30
5899;DHT22;2975;50.956;6.962;2023-04-29T16:19:42;15.10;97.50
5899;DHT22;2975;50.956;6.962;2023-04-29T16:22:09;15.00;98.10
5899;DHT22;2975;50.956;6.962;2023-04-29T16:24:34;14.80;98.40
5899;DHT22;2975;50.956;6.962;2023-04-29T16:27:00;14.70;98.60